sensor_id;sensor_type;location;lat;lon;timestamp;pressure;altitude;pressure_sealevel;temperature;humidity
2036;BME280;23642;42.658;23.350;2023-03-31T00:01:07;54976.78;;;-146.31;64.57
2036;BME280;23642;42.658;23.350;2023-03-31T00:03:38;54964.41;;;-146.31;64.58
2036;BME280;23642;42.658;23.350;2023-03-31T00:06:09;54943.75;;;-146.31;64.51
2036;BME280;23642;42.658;23.350;2023-03-31T00:08:42;54931.38;;;-146.31;64.78
2036;BME280;23642;42.658;23.350;2023-03-31T00:11:09;54914.84;;;-146.31;64.55
2036;BME280;23642;42.658;23.350;2023-03-31T00:13:37;54939.63;;;-146.31;64.36
2036;BME280;23642;42.658;23.350;2023-03-31T00:16:08;54908.66;;;-146.31;65.19
2036;BME280;23642;42.658;23.350;2023-03-31T00:18:36;54910.72;;;-146.31;65.45
2036;BME280;23642;42.658;23.350;2023-03-31T00:21:07;54918.97;;;-146.31;65.69
2036;BME280;23642;42.658;23.350;2023-03-31T00:23:34;54888.00;;;-146.31;65.48
2036;BME280;23642;42.658;23.350;2023-03-31T00:26:01;54881.78;;;-146.31;65.42
2036;BME280;23642;42.658;23.350;2023-03-31T00:28:27;54890.06;;;-146.31;64.83
2036;BME280;23642;42.658;23.350;2023-03-31T00:30:59;54863.22;;;-146.31;65.25
2036;BME280;23642;42.658;23.350;2023-03-31T00:33:28;54881.78;;;-146.31;64.00
2036;BME280;23642;42.658;23.350;2023-03-31T00:35:55;54904.50;;;-146.31;63.46
2036;BME280;23642;42.658;23.350;2023-03-31T00:38:29;54900.38;;;-146.31;62.94
2036;BME280;23642;42.658;23.350;2023-03-31T00:40:56;54910.72;;;-146.31;63.39
2036;BME280;23642;42.658;23.350;2023-03-31T00:43:27;54867.34;;;-146.31;62.55
2036;BME280;23642;42.658;23.350;2023-03-31T00:46:00;54881.78;;;-146.31;62.56
2036;BME280;23642;42.658;23.350;2023-03-31T00:48:30;54867.34;;;-146.31;62.00
2036;BME280;23642;42.658;23.350;2023-03-31T00:51:00;54842.56;;;-146.31;62.79
2036;BME280;23642;42.658;23.350;2023-03-31T00:53:31;54863.22;;;-146.31;61.76
2036;BME280;23642;42.658;23.350;2023-03-31T00:56:01;54811.59;;;-146.31;61.34
2036;BME280;23642;42.658;23.350;2023-03-31T00:58:32;54828.09;;;-146.31;61.04
2036;BME280;23642;42.658;23.350;2023-03-31T01:01:01;54828.09;;;-146.31;61.67
2036;BME280;23642;42.658;23.350;2023-03-31T01:03:32;54863.22;;;-146.31;62.71
2036;BME280;23642;42.658;23.350;2023-03-31T01:06:02;54846.69;;;-146.31;61.95
2036;BME280;23642;42.658;23.350;2023-03-31T01:08:31;54828.09;;;-146.31;61.81
2036;BME280;23642;42.658;23.350;2023-03-31T01:11:09;54836.38;;;-146.31;61.13
2036;BME280;23642;42.658;23.350;2023-03-31T01:13:38;54821.91;;;-146.31;61.89
2036;BME280;23642;42.658;23.350;2023-03-31T01:16:06;54832.25;;;-146.31;61.57
2036;BME280;23642;42.658;23.350;2023-03-31T01:18:34;54828.09;;;-146.31;61.00
2036;BME280;23642;42.658;23.350;2023-03-31T01:24:57;54799.19;;;-146.31;62.11
2036;BME280;23642;42.658;23.350;2023-03-31T01:27:52;54799.19;;;-146.31;61.80
2036;BME280;23642;42.658;23.350;2023-03-31T01:33:45;54861.16;;;-146.31;59.38
2036;BME280;23642;42.658;23.350;2023-03-31T01:36:37;54857.03;;;-146.31;59.78
2036;BME280;23642;42.658;23.350;2023-03-31T01:42:19;54811.59;;;-146.31;61.05
2036;BME280;23642;42.658;23.350;2023-03-31T01:44:58;54811.59;;;-146.31;59.37
2036;BME280;23642;42.658;23.350;2023-03-31T01:47:31;54819.84;;;-146.31;58.63
2036;BME280;23642;42.658;23.350;2023-03-31T01:50:08;54803.31;;;-146.31;59.32
2036;BME280;23642;42.658;23.350;2023-03-31T01:52:40;54788.88;;;-146.31;60.41
2036;BME280;23642;42.658;23.350;2023-03-31T01:55:12;54782.69;;;-146.31;61.07
2036;BME280;23642;42.658;23.350;2023-03-31T01:57:46;54774.41;;;-146.31;61.83
2036;BME280;23642;42.658;23.350;2023-03-31T02:00:16;54784.75;;;-146.31;60.53
2036;BME280;23642;42.658;23.350;2023-03-31T02:02:47;54799.19;;;-146.31;60.52
2036;BME280;23642;42.658;23.350;2023-03-31T02:05:18;54803.31;;;-146.31;58.36
2036;BME280;23642;42.658;23.350;2023-03-31T02:07:53;54780.59;;;-146.31;59.63
2036;BME280;23642;42.658;23.350;2023-03-31T02:10:22;54811.59;;;-146.31;59.19
2036;BME280;23642;42.658;23.350;2023-03-31T02:12:59;54848.75;;;-146.31;58.88
2036;BME280;23642;42.658;23.350;2023-03-31T02:15:30;54811.59;;;-146.31;58.75
2036;BME280;23642;42.658;23.350;2023-03-31T02:18:10;54811.59;;;-146.31;58.96
2036;BME280;23642;42.658;23.350;2023-03-31T02:20:46;54809.53;;;-146.31;57.34
2036;BME280;23642;42.658;23.350;2023-03-31T02:23:16;54795.06;;;-146.31;59.03
2036;BME280;23642;42.658;23.350;2023-03-31T02:25:48;54828.09;;;-146.31;58.96
2036;BME280;23642;42.658;23.350;2023-03-31T02:28:20;54823.97;;;-146.31;59.78
2036;BME280;23642;42.658;23.350;2023-03-31T02:30:57;54799.19;;;-146.31;61.38
2036;BME280;23642;42.658;23.350;2023-03-31T02:33:31;54836.38;;;-146.31;61.18
2036;BME280;23642;42.658;23.350;2023-03-31T02:36:01;54799.19;;;-146.31;61.43
2036;BME280;23642;42.658;23.350;2023-03-31T02:38:29;54788.88;;;-146.31;62.42
2036;BME280;23642;42.658;23.350;2023-03-31T02:40:58;54778.53;;;-146.31;63.27
2036;BME280;23642;42.658;23.350;2023-03-31T02:43:27;54782.69;;;-146.31;64.65
2036;BME280;23642;42.658;23.350;2023-03-31T02:45:54;54735.19;;;-146.31;65.39
2036;BME280;23642;42.658;23.350;2023-03-31T02:48:22;54691.81;;;-146.31;69.06
2036;BME280;23642;42.658;23.350;2023-03-31T02:51:03;54667.03;;;-146.31;70.41
2036;BME280;23642;42.658;23.350;2023-03-31T02:53:49;54596.81;;;-146.31;69.11
2036;BME280;23642;42.658;23.350;2023-03-31T02:56:38;54588.56;;;-146.31;70.92
2036;BME280;23642;42.658;23.350;2023-03-31T02:59:32;54539.00;;;-146.31;69.13
2036;BME280;23642;42.658;23.350;2023-03-31T03:02:09;54572.03;;;-146.31;68.63
2036;BME280;23642;42.658;23.350;2023-03-31T03:04:52;54551.41;;;-146.31;67.37
2036;BME280;23642;42.658;23.350;2023-03-31T03:07:24;54561.72;;;-146.31;67.19
2036;BME280;23642;42.658;23.350;2023-03-31T03:10:00;54532.81;;;-146.31;69.20
2036;BME280;23642;42.658;23.350;2023-03-31T03:12:33;54518.38;;;-146.31;68.96
2036;BME280;23642;42.658;23.350;2023-03-31T03:15:07;54510.09;;;-146.31;68.00
2036;BME280;23642;42.658;23.350;2023-03-31T03:17:38;54541.06;;;-146.31;65.63
2036;BME280;23642;42.658;23.350;2023-03-31T03:20:07;54503.91;;;-146.31;65.52
2036;BME280;23642;42.658;23.350;2023-03-31T03:22:36;54485.31;;;-146.31;66.16
2036;BME280;23642;42.658;23.350;2023-03-31T03:25:04;54466.75;;;-146.31;66.54
2036;BME280;23642;42.658;23.350;2023-03-31T03:27:31;54435.75;;;-146.31;66.77
2036;BME280;23642;42.658;23.350;2023-03-31T03:30:02;54429.56;;;-146.31;67.80
2036;BME280;23642;42.658;23.350;2023-03-31T03:32:33;54419.25;;;-146.31;68.74
2036;BME280;23642;42.658;23.350;2023-03-31T03:35:00;54460.53;;;-146.31;68.29
2036;BME280;23642;42.658;23.350;2023-03-31T03:37:27;54437.84;;;-146.31;68.87
2036;BME280;23642;42.658;23.350;2023-03-31T03:39:54;54423.38;;;-146.31;69.48
2036;BME280;23642;42.658;23.350;2023-03-31T03:42:21;54431.63;;;-146.31;69.41
2036;BME280;23642;42.658;23.350;2023-03-31T03:44:50;54371.75;;;-146.31;71.53
2036;BME280;23642;42.658;23.350;2023-03-31T03:47:16;54313.94;;;-146.31;71.54
2036;BME280;23642;42.658;23.350;2023-03-31T03:49:45;54303.63;;;-146.31;72.20
2036;BME280;23642;42.658;23.350;2023-03-31T03:52:13;54307.75;;;-146.31;72.86
2036;BME280;23642;42.658;23.350;2023-03-31T03:54:40;54256.13;;;-146.31;75.82
2036;BME280;23642;42.658;23.350;2023-03-31T03:57:08;54196.25;;;-146.31;78.19
2036;BME280;23642;42.658;23.350;2023-03-31T03:59:35;54229.28;;;-146.31;76.12
2036;BME280;23642;42.658;23.350;2023-03-31T04:02:02;54167.34;;;-146.31;78.12
2036;BME280;23642;42.658;23.350;2023-03-31T04:04:29;54124.00;;;-146.31;79.57
2036;BME280;23642;42.658;23.350;2023-03-31T04:06:57;54126.06;;;-146.31;79.77
2036;BME280;23642;42.658;23.350;2023-03-31T04:09:25;54132.25;;;-146.31;78.87
2036;BME280;23642;42.658;23.350;2023-03-31T04:11:52;54088.88;;;-146.31;78.33
2036;BME280;23642;42.658;23.350;2023-03-31T04:14:20;54117.78;;;-146.31;77.92
2036;BME280;23642;42.658;23.350;2023-03-31T04:16:47;54171.47;;;-146.31;74.05
2036;BME280;23642;42.658;23.350;2023-03-31T04:19:14;54159.09;;;-146.31;73.29
2036;BME280;23642;42.658;23.350;2023-03-31T04:21:44;54208.63;;;-146.31;71.07
2036;BME280;23642;42.658;23.350;2023-03-31T04:24:24;54218.97;;;-146.31;69.78
2036;BME280;23642;42.658;23.350;2023-03-31T04:26:55;54270.59;;;-146.31;69.33
2036;BME280;23642;42.658;23.350;2023-03-31T04:29:22;54301.56;;;-146.31;68.64
2036;BME280;23642;42.658;23.350;2023-03-31T04:31:51;54287.09;;;-146.31;68.27
2036;BME280;23642;42.658;23.350;2023-03-31T04:34:18;54262.31;;;-146.31;68.62
2036;BME280;23642;42.658;23.350;2023-03-31T04:36:51;54291.22;;;-146.31;68.91
2036;BME280;23642;42.658;23.350;2023-03-31T04:39:20;54249.94;;;-146.31;69.27
2036;BME280;23642;42.658;23.350;2023-03-31T04:41:52;54218.97;;;-146.31;68.35
2036;BME280;23642;42.658;23.350;2023-03-31T04:44:34;54245.81;;;-146.31;69.67
2036;BME280;23642;42.658;23.350;2023-03-31T04:47:01;54183.88;;;-146.31;71.41
2036;BME280;23642;42.658;23.350;2023-03-31T04:49:31;54142.56;;;-146.31;72.91
2036;BME280;23642;42.658;23.350;2023-03-31T04:51:58;54099.22;;;-146.31;74.16
2036;BME280;23642;42.658;23.350;2023-03-31T04:54:25;54167.34;;;-146.31;71.54
2036;BME280;23642;42.658;23.350;2023-03-31T04:56:53;54175.59;;;-146.31;71.28
2036;BME280;23642;42.658;23.350;2023-03-31T04:59:20;54113.66;;;-146.31;71.75
2036;BME280;23642;42.658;23.350;2023-03-31T05:01:46;54121.94;;;-146.31;72.15
2036;BME280;23642;42.658;23.350;2023-03-31T05:04:13;54080.63;;;-146.31;72.25
2036;BME280;23642;42.658;23.350;2023-03-31T05:06:40;54080.63;;;-146.31;71.22
2036;BME280;23642;42.658;23.350;2023-03-31T05:09:07;54074.44;;;-146.31;71.44
2036;BME280;23642;42.658;23.350;2023-03-31T05:11:35;54004.25;;;-146.31;72.54
2036;BME280;23642;42.658;23.350;2023-03-31T05:14:03;54035.22;;;-146.31;72.02
2036;BME280;23642;42.658;23.350;2023-03-31T05:16:31;54008.38;;;-146.31;71.64
2036;BME280;23642;42.658;23.350;2023-03-31T05:18:58;54002.19;;;-146.31;72.41
2036;BME280;23642;42.658;23.350;2023-03-31T05:21:28;53993.91;;;-146.31;72.23
2036;BME280;23642;42.658;23.350;2023-03-31T05:23:56;53991.84;;;-146.31;71.47
2036;BME280;23642;42.658;23.350;2023-03-31T05:26:24;54020.75;;;-146.31;69.17
2036;BME280;23642;42.658;23.350;2023-03-31T05:28:51;54051.72;;;-146.31;67.69
2036;BME280;23642;42.658;23.350;2023-03-31T05:31:20;54035.22;;;-146.31;67.63
2036;BME280;23642;42.658;23.350;2023-03-31T05:33:48;54090.97;;;-146.31;66.07
2036;BME280;23642;42.658;23.350;2023-03-31T05:36:16;54095.09;;;-146.31;66.25
2036;BME280;23642;42.658;23.350;2023-03-31T05:38:43;54113.66;;;-146.31;66.75
2036;BME280;23642;42.658;23.350;2023-03-31T05:41:10;54076.50;;;-146.31;67.48
2036;BME280;23642;42.658;23.350;2023-03-31T05:43:38;54060.00;;;-146.31;68.15
2036;BME280;23642;42.658;23.350;2023-03-31T05:46:05;54053.78;;;-146.31;68.48
2036;BME280;23642;42.658;23.350;2023-03-31T05:48:33;54022.81;;;-146.31;68.20
2036;BME280;23642;42.658;23.350;2023-03-31T05:51:02;54088.88;;;-146.31;66.98
2036;BME280;23642;42.658;23.350;2023-03-31T05:53:32;54093.03;;;-146.31;65.86
2036;BME280;23642;42.658;23.350;2023-03-31T05:55:59;53975.34;;;-146.31;66.13
2036;BME280;23642;42.658;23.350;2023-03-31T05:58:27;54000.13;;;-146.31;62.39
2036;BME280;23642;42.658;23.350;2023-03-31T06:01:02;54026.94;;;-146.31;63.80
2036;BME280;23642;42.658;23.350;2023-03-31T06:03:30;53952.63;;;-146.31;64.74
2036;BME280;23642;42.658;23.350;2023-03-31T06:05:59;54022.81;;;-146.31;63.11
2036;BME280;23642;42.658;23.350;2023-03-31T06:08:27;54006.31;;;-146.31;63.58
2036;BME280;23642;42.658;23.350;2023-03-31T06:10:54;53934.06;;;-146.31;64.80
2036;BME280;23642;42.658;23.350;2023-03-31T06:13:21;53925.78;;;-146.31;63.86
2036;BME280;23642;42.658;23.350;2023-03-31T06:15:53;54051.72;;;-146.31;62.33
2036;BME280;23642;42.658;23.350;2023-03-31T06:18:22;54047.59;;;-146.31;62.81
2036;BME280;23642;42.658;23.350;2023-03-31T06:20:50;53987.72;;;-146.31;63.93
2036;BME280;23642;42.658;23.350;2023-03-31T06:23:25;54002.19;;;-146.31;62.80
2036;BME280;23642;42.658;23.350;2023-03-31T06:25:52;54022.81;;;-146.31;62.65
2036;BME280;23642;42.658;23.350;2023-03-31T06:28:22;54051.72;;;-146.31;62.63
2036;BME280;23642;42.658;23.350;2023-03-31T06:30:59;54010.44;;;-146.31;64.07
2036;BME280;23642;42.658;23.350;2023-03-31T06:33:26;53965.03;;;-146.31;62.77
2036;BME280;23642;42.658;23.350;2023-03-31T06:35:54;53977.41;;;-146.31;64.09
2036;BME280;23642;42.658;23.350;2023-03-31T06:38:22;53989.78;;;-146.31;63.73
2036;BME280;23642;42.658;23.350;2023-03-31T06:40:50;53946.44;;;-146.31;63.45
2036;BME280;23642;42.658;23.350;2023-03-31T06:43:17;54031.09;;;-146.31;62.23
2036;BME280;23642;42.658;23.350;2023-03-31T06:45:45;53993.91;;;-146.31;62.60
2036;BME280;23642;42.658;23.350;2023-03-31T06:48:12;53977.41;;;-146.31;63.53
2036;BME280;23642;42.658;23.350;2023-03-31T06:50:39;53915.47;;;-146.31;62.88
2036;BME280;23642;42.658;23.350;2023-03-31T06:53:08;53880.38;;;-146.31;61.74
2036;BME280;23642;42.658;23.350;2023-03-31T06:55:35;53969.16;;;-146.31;58.98
2036;BME280;23642;42.658;23.350;2023-03-31T06:58:05;53944.38;;;-146.31;59.44
2036;BME280;23642;42.658;23.350;2023-03-31T07:00:46;53946.44;;;-146.31;58.01
2036;BME280;23642;42.658;23.350;2023-03-31T07:03:21;53886.56;;;-146.31;58.53
2036;BME280;23642;42.658;23.350;2023-03-31T07:05:51;53853.53;;;-146.31;57.68
2036;BME280;23642;42.658;23.350;2023-03-31T07:08:37;53845.28;;;-146.31;55.50
2036;BME280;23642;42.658;23.350;2023-03-31T07:11:16;53861.78;;;-146.31;55.38
2036;BME280;23642;42.658;23.350;2023-03-31T07:13:50;53880.38;;;-146.31;55.62
2036;BME280;23642;42.658;23.350;2023-03-31T07:16:17;53913.41;;;-146.31;55.91
2036;BME280;23642;42.658;23.350;2023-03-31T07:19:18;53915.47;;;-146.31;55.93
2036;BME280;23642;42.658;23.350;2023-03-31T07:21:45;53989.78;;;-146.31;55.72
2036;BME280;23642;42.658;23.350;2023-03-31T07:24:12;53962.94;;;-146.31;55.58
2036;BME280;23642;42.658;23.350;2023-03-31T07:26:41;53998.06;;;-146.31;53.76
2036;BME280;23642;42.658;23.350;2023-03-31T07:29:12;53965.03;;;-146.31;52.83
2036;BME280;23642;42.658;23.350;2023-03-31T07:31:39;53973.28;;;-146.31;51.94
2036;BME280;23642;42.658;23.350;2023-03-31T07:34:08;53989.78;;;-146.31;51.31
2036;BME280;23642;42.658;23.350;2023-03-31T07:36:36;54045.53;;;-146.31;52.01
2036;BME280;23642;42.658;23.350;2023-03-31T07:39:20;53946.44;;;-146.31;51.53
2036;BME280;23642;42.658;23.350;2023-03-31T07:41:51;53993.91;;;-146.31;51.29
2036;BME280;23642;42.658;23.350;2023-03-31T07:44:21;54080.63;;;-146.31;50.51
2036;BME280;23642;42.658;23.350;2023-03-31T07:47:08;54136.38;;;-146.31;47.92
2036;BME280;23642;42.658;23.350;2023-03-31T07:49:35;54136.38;;;-146.31;47.76
2036;BME280;23642;42.658;23.350;2023-03-31T07:52:04;54208.63;;;-146.31;46.47
2036;BME280;23642;42.658;23.350;2023-03-31T07:54:30;54200.38;;;-146.31;46.60
2036;BME280;23642;42.658;23.350;2023-03-31T07:57:06;54202.44;;;-146.31;45.31
2036;BME280;23642;42.658;23.350;2023-03-31T07:59:53;54258.19;;;-146.31;45.93
2036;BME280;23642;42.658;23.350;2023-03-31T08:02:20;54223.09;;;-146.31;44.89
2036;BME280;23642;42.658;23.350;2023-03-31T08:04:49;54291.22;;;-146.31;44.55
2036;BME280;23642;42.658;23.350;2023-03-31T08:07:16;54280.91;;;-146.31;44.07
2036;BME280;23642;42.658;23.350;2023-03-31T08:09:45;54268.53;;;-146.31;43.25
2036;BME280;23642;42.658;23.350;2023-03-31T08:12:15;54233.41;;;-146.31;42.31
2036;BME280;23642;42.658;23.350;2023-03-31T08:14:42;54495.66;;;-146.31;41.17
2036;BME280;23642;42.658;23.350;2023-03-31T08:17:10;54582.38;;;-146.31;41.59
2036;BME280;23642;42.658;23.350;2023-03-31T08:19:37;54563.78;;;-146.31;41.87
2036;BME280;23642;42.658;23.350;2023-03-31T08:22:04;54615.41;;;-146.31;43.03
2036;BME280;23642;42.658;23.350;2023-03-31T08:24:31;54634.00;;;-146.31;42.58
2036;BME280;23642;42.658;23.350;2023-03-31T08:26:58;54700.06;;;-146.31;43.21
2036;BME280;23642;42.658;23.350;2023-03-31T08:29:25;54642.25;;;-146.31;42.83
2036;BME280;23642;42.658;23.350;2023-03-31T08:31:52;54652.59;;;-146.31;42.69
2036;BME280;23642;42.658;23.350;2023-03-31T08:34:21;54662.91;;;-146.31;42.99
2036;BME280;23642;42.658;23.350;2023-03-31T08:36:47;54658.78;;;-146.31;43.16
2036;BME280;23642;42.658;23.350;2023-03-31T08:39:14;54735.19;;;-146.31;43.31
2036;BME280;23642;42.658;23.350;2023-03-31T08:41:50;54693.88;;;-146.31;43.49
2036;BME280;23642;42.658;23.350;2023-03-31T08:44:25;54745.50;;;-146.31;43.20
2036;BME280;23642;42.658;23.350;2023-03-31T08:46:58;54766.16;;;-146.31;43.21
2036;BME280;23642;42.658;23.350;2023-03-31T08:49:41;54708.34;;;-146.31;42.78
2036;BME280;23642;42.658;23.350;2023-03-31T08:52:14;54642.25;;;-146.31;41.90
2036;BME280;23642;42.658;23.350;2023-03-31T08:58:10;54782.69;;;-146.31;42.60
2036;BME280;23642;42.658;23.350;2023-03-31T09:00:48;54782.69;;;-146.31;42.51
2036;BME280;23642;42.658;23.350;2023-03-31T09:03:23;54803.31;;;-146.31;42.70
2036;BME280;23642;42.658;23.350;2023-03-31T09:05:59;54782.69;;;-146.31;42.67
2036;BME280;23642;42.658;23.350;2023-03-31T09:08:37;54770.28;;;-146.31;43.07
2036;BME280;23642;42.658;23.350;2023-03-31T09:11:10;54803.31;;;-146.31;42.96
2036;BME280;23642;42.658;23.350;2023-03-31T09:13:58;54778.53;;;-146.31;43.09
2036;BME280;23642;42.658;23.350;2023-03-31T09:16:36;54749.63;;;-146.31;43.01
2036;BME280;23642;42.658;23.350;2023-03-31T09:19:15;54770.28;;;-146.31;42.49
2036;BME280;23642;42.658;23.350;2023-03-31T09:22:00;54782.69;;;-146.31;41.90
2036;BME280;23642;42.658;23.350;2023-03-31T09:24:32;54720.72;;;-146.31;41.27
2036;BME280;23642;42.658;23.350;2023-03-31T09:27:20;54720.72;;;-146.31;40.39
2036;BME280;23642;42.658;23.350;2023-03-31T09:33:19;54720.72;;;-146.31;39.87
2036;BME280;23642;42.658;23.350;2023-03-31T09:35:49;54720.72;;;-146.31;39.82
2036;BME280;23642;42.658;23.350;2023-03-31T09:38:20;54716.59;;;-146.31;39.71
2036;BME280;23642;42.658;23.350;2023-03-31T09:40:51;54687.69;;;-146.31;38.70
2036;BME280;23642;42.658;23.350;2023-03-31T09:43:32;54662.91;;;-146.31;37.85
2036;BME280;23642;42.658;23.350;2023-03-31T09:46:01;54749.63;;;-146.31;38.41
2036;BME280;23642;42.658;23.350;2023-03-31T09:48:31;54737.25;;;-146.31;38.92
2036;BME280;23642;42.658;23.350;2023-03-31T09:51:03;54592.69;;;-146.31;39.87
2036;BME280;23642;42.658;23.350;2023-03-31T09:53:39;54675.28;;;-146.31;39.35
2036;BME280;23642;42.658;23.350;2023-03-31T09:56:08;54720.72;;;-146.31;39.04
2036;BME280;23642;42.658;23.350;2023-03-31T09:58:40;54662.91;;;-146.31;39.93
2036;BME280;23642;42.658;23.350;2023-03-31T10:01:13;54698.00;;;-146.31;38.67
2036;BME280;23642;42.658;23.350;2023-03-31T10:03:48;54782.69;;;-146.31;38.64
2036;BME280;23642;42.658;23.350;2023-03-31T10:06:16;54770.28;;;-146.31;39.07
2036;BME280;23642;42.658;23.350;2023-03-31T10:08:50;54714.53;;;-146.31;38.67
2036;BME280;23642;42.658;23.350;2023-03-31T10:11:21;54559.66;;;-146.31;37.95
2036;BME280;23642;42.658;23.350;2023-03-31T10:13:52;54683.56;;;-146.31;37.56
2036;BME280;23642;42.658;23.350;2023-03-31T10:16:28;54704.22;;;-146.31;37.86
2036;BME280;23642;42.658;23.350;2023-03-31T10:19:11;54700.06;;;-146.31;37.41
2036;BME280;23642;42.658;23.350;2023-03-31T10:21:39;54634.00;;;-146.31;37.40
2036;BME280;23642;42.658;23.350;2023-03-31T10:24:15;54712.47;;;-146.31;37.49
2036;BME280;23642;42.658;23.350;2023-03-31T10:26:47;54710.41;;;-146.31;37.63
2036;BME280;23642;42.658;23.350;2023-03-31T10:29:19;54708.34;;;-146.31;37.50
2036;BME280;23642;42.658;23.350;2023-03-31T10:31:50;54743.44;;;-146.31;37.82
2036;BME280;23642;42.658;23.350;2023-03-31T10:34:17;54681.50;;;-146.31;37.47
2036;BME280;23642;42.658;23.350;2023-03-31T10:36:49;54667.03;;;-146.31;37.13
2036;BME280;23642;42.658;23.350;2023-03-31T10:39:18;54708.34;;;-146.31;36.98
2036;BME280;23642;42.658;23.350;2023-03-31T10:41:52;54683.56;;;-146.31;36.40
2036;BME280;23642;42.658;23.350;2023-03-31T10:44:31;54724.84;;;-146.31;36.12
2036;BME280;23642;42.658;23.350;2023-03-31T10:47:04;54708.34;;;-146.31;36.99
2036;BME280;23642;42.658;23.350;2023-03-31T10:49:37;54648.44;;;-146.31;36.04
2036;BME280;23642;42.658;23.350;2023-03-31T10:52:23;54753.75;;;-146.31;36.92
2036;BME280;23642;42.658;23.350;2023-03-31T10:55:27;54722.78;;;-146.31;36.61
2036;BME280;23642;42.658;23.350;2023-03-31T10:57:56;54592.69;;;-146.31;35.89
2036;BME280;23642;42.658;23.350;2023-03-31T11:00:28;54689.75;;;-146.31;35.76
2036;BME280;23642;42.658;23.350;2023-03-31T11:03:31;54698.00;;;-146.31;35.89
2036;BME280;23642;42.658;23.350;2023-03-31T11:06:40;54695.94;;;-146.31;35.94
2036;BME280;23642;42.658;23.350;2023-03-31T11:09:25;54698.00;;;-146.31;35.50
2036;BME280;23642;42.658;23.350;2023-03-31T11:12:35;54733.13;;;-146.31;36.15
2036;BME280;23642;42.658;23.350;2023-03-31T11:15:30;54757.91;;;-146.31;36.12
2036;BME280;23642;42.658;23.350;2023-03-31T11:18:28;54706.28;;;-146.31;35.97
2036;BME280;23642;42.658;23.350;2023-03-31T11:21:15;54724.84;;;-146.31;35.97
2036;BME280;23642;42.658;23.350;2023-03-31T11:23:51;54698.00;;;-146.31;35.58
2036;BME280;23642;42.658;23.350;2023-03-31T11:26:32;54671.16;;;-146.31;35.35
2036;BME280;23642;42.658;23.350;2023-03-31T11:29:22;54737.25;;;-146.31;35.77
2036;BME280;23642;42.658;23.350;2023-03-31T11:32:19;54724.84;;;-146.31;36.34
2036;BME280;23642;42.658;23.350;2023-03-31T11:35:22;54667.03;;;-146.31;36.00
2036;BME280;23642;42.658;23.350;2023-03-31T11:42:07;54743.44;;;-146.31;37.19
2036;BME280;23642;42.658;23.350;2023-03-31T11:45:32;54805.38;;;-146.31;37.44
2036;BME280;23642;42.658;23.350;2023-03-31T11:48:28;54811.59;;;-146.31;37.59
2036;BME280;23642;42.658;23.350;2023-03-31T11:52:07;54840.50;;;-146.31;38.20
2036;BME280;23642;42.658;23.350;2023-03-31T11:54:54;54745.50;;;-146.31;37.49
2036;BME280;23642;42.658;23.350;2023-03-31T11:58:03;54784.75;;;-146.31;37.69
2036;BME280;23642;42.658;23.350;2023-03-31T12:00:51;54782.69;;;-146.31;37.62
2036;BME280;23642;42.658;23.350;2023-03-31T12:03:39;54828.09;;;-146.31;38.24
2036;BME280;23642;42.658;23.350;2023-03-31T12:06:28;54811.59;;;-146.31;39.16
2036;BME280;23642;42.658;23.350;2023-03-31T12:09:07;54809.53;;;-146.31;38.32
2036;BME280;23642;42.658;23.350;2023-03-31T12:11:47;54759.97;;;-146.31;37.72
2036;BME280;23642;42.658;23.350;2023-03-31T12:14:32;54739.31;;;-146.31;37.55
2036;BME280;23642;42.658;23.350;2023-03-31T12:17:53;54720.72;;;-146.31;37.28
2036;BME280;23642;42.658;23.350;2023-03-31T12:20:35;54834.31;;;-146.31;37.50
2036;BME280;23642;42.658;23.350;2023-03-31T12:23:26;54832.25;;;-146.31;37.61
2036;BME280;23642;42.658;23.350;2023-03-31T12:26:35;54830.16;;;-146.31;37.83
2036;BME280;23642;42.658;23.350;2023-03-31T12:29:26;54795.06;;;-146.31;38.03
2036;BME280;23642;42.658;23.350;2023-03-31T12:32:21;54803.31;;;-146.31;37.67
2036;BME280;23642;42.658;23.350;2023-03-31T12:35:53;54770.28;;;-146.31;37.72
2036;BME280;23642;42.658;23.350;2023-03-31T12:48:01;54782.69;;;-146.31;37.42
2036;BME280;23642;42.658;23.350;2023-03-31T12:53:58;54784.75;;;-146.31;36.78
2036;BME280;23642;42.658;23.350;2023-03-31T12:59:36;54737.25;;;-146.31;37.19
2036;BME280;23642;42.658;23.350;2023-03-31T13:02:37;54757.91;;;-146.31;36.67
2036;BME280;23642;42.658;23.350;2023-03-31T13:05:45;54683.56;;;-146.31;36.14
2036;BME280;23642;42.658;23.350;2023-03-31T13:08:53;54710.41;;;-146.31;36.12
2036;BME280;23642;42.658;23.350;2023-03-31T13:11:36;54691.81;;;-146.31;35.89
2036;BME280;23642;42.658;23.350;2023-03-31T13:14:46;54687.69;;;-146.31;36.03
2036;BME280;23642;42.658;23.350;2023-03-31T13:20:41;54669.09;;;-146.31;35.63
2036;BME280;23642;42.658;23.350;2023-03-31T13:23:34;54621.59;;;-146.31;35.23
2036;BME280;23642;42.658;23.350;2023-03-31T13:26:42;54646.38;;;-146.31;35.39
2036;BME280;23642;42.658;23.350;2023-03-31T13:29:42;54662.91;;;-146.31;35.52
2036;BME280;23642;42.658;23.350;2023-03-31T13:32:41;54693.88;;;-146.31;35.91
2036;BME280;23642;42.658;23.350;2023-03-31T13:42:50;54766.16;;;-146.31;36.35
2036;BME280;23642;42.658;23.350;2023-03-31T13:46:29;54778.53;;;-146.31;36.14
2036;BME280;23642;42.658;23.350;2023-03-31T13:48:50;54710.41;;;-146.31;35.62
2036;BME280;23642;42.658;23.350;2023-03-31T13:51:44;54722.78;;;-146.31;36.04
2036;BME280;23642;42.658;23.350;2023-03-31T14:01:09;54823.97;;;-146.31;37.07
2036;BME280;23642;42.658;23.350;2023-03-31T14:06:49;54679.44;;;-146.31;36.38
2036;BME280;23642;42.658;23.350;2023-03-31T14:09:41;54603.03;;;-146.31;35.54
2036;BME280;23642;42.658;23.350;2023-03-31T14:12:48;54503.91;;;-146.31;34.87
2036;BME280;23642;42.658;23.350;2023-03-31T14:15:19;54642.25;;;-146.31;35.12
2036;BME280;23642;42.658;23.350;2023-03-31T14:18:15;54728.97;;;-146.31;35.66
2036;BME280;23642;42.658;23.350;2023-03-31T14:21:13;54741.38;;;-146.31;35.79